sensor_id;sensor_type;location;lat;lon;timestamp;P1;durP1;ratioP1;P2;durP2;ratioP2
19877;SDS011;10101;52.204;9.910;2022-12-18T00:00:44;9.97;;;6.10;;
19877;SDS011;10101;52.204;9.910;2022-12-18T00:03:11;11.70;;;6.03;;
19877;SDS011;10101;52.204;9.910;2022-12-18T00:05:45;12.67;;;6.23;;
19877;SDS011;10101;52.204;9.910;2022-12-18T00:08:14;10.90;;;6.20;;
19877;SDS011;10101;52.204;9.910;2022-12-18T00:10:40;12.80;;;6.10;;
19877;SDS011;10101;52.204;9.910;2022-12-18T00:13:07;11.83;;;6.20;;
19877;SDS011;10101;52.204;9.910;2022-12-18T00:15:34;13.27;;;6.43;;
19877;SDS011;10101;52.204;9.910;2022-12-18T00:18:02;9.33;;;5.63;;
19877;SDS011;10101;52.204;9.910;2022-12-18T00:20:29;11.73;;;6.47;;
19877;SDS011;10101;52.204;9.910;2022-12-18T00:22:56;10.80;;;5.67;;
19877;SDS011;10101;52.204;9.910;2022-12-18T00:25:24;11.20;;;5.57;;
19877;SDS011;10101;52.204;9.910;2022-12-18T00:27:51;12.37;;;5.80;;
19877;SDS011;10101;52.204;9.910;2022-12-18T00:30:17;12.20;;;5.40;;
19877;SDS011;10101;52.204;9.910;2022-12-18T00:32:44;11.30;;;5.63;;
19877;SDS011;10101;52.204;9.910;2022-12-18T00:35:11;10.20;;;5.33;;
19877;SDS011;10101;52.204;9.910;2022-12-18T00:37:37;10.83;;;5.83;;
19877;SDS011;10101;52.204;9.910;2022-12-18T00:40:05;11.77;;;5.60;;
19877;SDS011;10101;52.204;9.910;2022-12-18T00:42:34;10.93;;;5.40;;
19877;SDS011;10101;52.204;9.910;2022-12-18T00:45:18;9.77;;;5.13;;
19877;SDS011;10101;52.204;9.910;2022-12-18T00:47:45;11.07;;;5.60;;
19877;SDS011;10101;52.204;9.910;2022-12-18T00:50:11;12.87;;;5.63;;
19877;SDS011;10101;52.204;9.910;2022-12-18T00:52:38;10.20;;;5.00;;
19877;SDS011;10101;52.204;9.910;2022-12-18T00:55:07;9.10;;;5.20;;
19877;SDS011;10101;52.204;9.910;2022-12-18T00:57:36;11.83;;;5.83;;
19877;SDS011;10101;52.204;9.910;2022-12-18T01:00:03;11.10;;;5.60;;
19877;SDS011;10101;52.204;9.910;2022-12-18T01:02:30;11.07;;;5.67;;
19877;SDS011;10101;52.204;9.910;2022-12-18T01:04:57;7.63;;;4.77;;
19877;SDS011;10101;52.204;9.910;2022-12-18T01:07:24;12.13;;;5.60;;
19877;SDS011;10101;52.204;9.910;2022-12-18T01:09:51;9.13;;;5.00;;
19877;SDS011;10101;52.204;9.910;2022-12-18T01:12:17;7.97;;;5.13;;
19877;SDS011;10101;52.204;9.910;2022-12-18T01:14:45;11.33;;;5.50;;
19877;SDS011;10101;52.204;9.910;2022-12-18T01:17:12;11.33;;;6.00;;
19877;SDS011;10101;52.204;9.910;2022-12-18T01:19:39;12.33;;;5.27;;
19877;SDS011;10101;52.204;9.910;2022-12-18T01:22:06;11.60;;;6.30;;
19877;SDS011;10101;52.204;9.910;2022-12-18T01:24:33;11.63;;;5.33;;
19877;SDS011;10101;52.204;9.910;2022-12-18T01:27:00;11.73;;;5.90;;
19877;SDS011;10101;52.204;9.910;2022-12-18T01:29:27;11.27;;;5.50;;
19877;SDS011;10101;52.204;9.910;2022-12-18T01:31:55;13.33;;;6.37;;
19877;SDS011;10101;52.204;9.910;2022-12-18T01:34:22;10.93;;;6.00;;
19877;SDS011;10101;52.204;9.910;2022-12-18T01:36:49;9.87;;;5.57;;
19877;SDS011;10101;52.204;9.910;2022-12-18T01:39:17;12.97;;;5.87;;
19877;SDS011;10101;52.204;9.910;2022-12-18T01:41:44;12.27;;;6.10;;
19877;SDS011;10101;52.204;9.910;2022-12-18T01:47:29;11.20;;;5.90;;
19877;SDS011;10101;52.204;9.910;2022-12-18T01:50:00;9.97;;;5.23;;
19877;SDS011;10101;52.204;9.910;2022-12-18T01:52:30;12.83;;;6.33;;
19877;SDS011;10101;52.204;9.910;2022-12-18T01:54:58;9.47;;;5.73;;
19877;SDS011;10101;52.204;9.910;2022-12-18T01:57:26;11.17;;;5.37;;
19877;SDS011;10101;52.204;9.910;2022-12-18T01:59:54;10.70;;;5.47;;
19877;SDS011;10101;52.204;9.910;2022-12-18T02:02:25;11.20;;;5.60;;
19877;SDS011;10101;52.204;9.910;2022-12-18T02:04:54;11.00;;;5.17;;
19877;SDS011;10101;52.204;9.910;2022-12-18T02:07:23;13.43;;;6.63;;
19877;SDS011;10101;52.204;9.910;2022-12-18T02:09:59;11.10;;;5.03;;
19877;SDS011;10101;52.204;9.910;2022-12-18T02:12:31;13.60;;;5.67;;
19877;SDS011;10101;52.204;9.910;2022-12-18T02:15:09;9.63;;;5.30;;
19877;SDS011;10101;52.204;9.910;2022-12-18T02:17:42;6.27;;;4.60;;
19877;SDS011;10101;52.204;9.910;2022-12-18T02:20:16;10.93;;;4.97;;
19877;SDS011;10101;52.204;9.910;2022-12-18T02:22:50;11.13;;;5.30;;
19877;SDS011;10101;52.204;9.910;2022-12-18T02:25:31;11.23;;;5.13;;
19877;SDS011;10101;52.204;9.910;2022-12-18T02:28:08;11.60;;;5.60;;
19877;SDS011;10101;52.204;9.910;2022-12-18T02:30:39;10.43;;;5.50;;
19877;SDS011;10101;52.204;9.910;2022-12-18T02:33:08;11.00;;;5.60;;
19877;SDS011;10101;52.204;9.910;2022-12-18T02:35:37;9.27;;;5.43;;
19877;SDS011;10101;52.204;9.910;2022-12-18T02:38:06;9.53;;;4.80;;
19877;SDS011;10101;52.204;9.910;2022-12-18T02:40:33;11.30;;;5.80;;
19877;SDS011;10101;52.204;9.910;2022-12-18T02:43:02;9.63;;;5.03;;
19877;SDS011;10101;52.204;9.910;2022-12-18T02:45:35;11.17;;;5.90;;
19877;SDS011;10101;52.204;9.910;2022-12-18T02:48:02;9.33;;;5.00;;
19877;SDS011;10101;52.204;9.910;2022-12-18T02:50:30;16.70;;;6.37;;
19877;SDS011;10101;52.204;9.910;2022-12-18T02:53:06;10.47;;;5.20;;
19877;SDS011;10101;52.204;9.910;2022-12-18T02:55:44;8.80;;;5.33;;
19877;SDS011;10101;52.204;9.910;2022-12-18T02:58:20;9.73;;;5.37;;
19877;SDS011;10101;52.204;9.910;2022-12-18T03:00:57;13.17;;;5.50;;
19877;SDS011;10101;52.204;9.910;2022-12-18T03:03:28;11.07;;;4.80;;
19877;SDS011;10101;52.204;9.910;2022-12-18T03:06:00;10.13;;;4.60;;
19877;SDS011;10101;52.204;9.910;2022-12-18T03:08:31;9.40;;;4.90;;
19877;SDS011;10101;52.204;9.910;2022-12-18T03:11:02;7.87;;;4.60;;
19877;SDS011;10101;52.204;9.910;2022-12-18T03:13:33;8.63;;;4.17;;
19877;SDS011;10101;52.204;9.910;2022-12-18T03:16:03;9.00;;;4.60;;
19877;SDS011;10101;52.204;9.910;2022-12-18T03:18:34;8.37;;;4.23;;
19877;SDS011;10101;52.204;9.910;2022-12-18T03:21:04;10.73;;;4.83;;
19877;SDS011;10101;52.204;9.910;2022-12-18T03:23:35;6.83;;;4.40;;
19877;SDS011;10101;52.204;9.910;2022-12-18T03:26:07;9.37;;;4.17;;
19877;SDS011;10101;52.204;9.910;2022-12-18T03:28:39;6.40;;;3.93;;
19877;SDS011;10101;52.204;9.910;2022-12-18T03:31:10;9.23;;;4.83;;
19877;SDS011;10101;52.204;9.910;2022-12-18T03:33:40;8.03;;;4.37;;
19877;SDS011;10101;52.204;9.910;2022-12-18T03:36:11;11.03;;;4.93;;
19877;SDS011;10101;52.204;9.910;2022-12-18T03:38:38;10.33;;;5.30;;
19877;SDS011;10101;52.204;9.910;2022-12-18T03:41:06;11.27;;;4.97;;
19877;SDS011;10101;52.204;9.910;2022-12-18T03:43:43;8.63;;;4.57;;
19877;SDS011;10101;52.204;9.910;2022-12-18T03:46:17;9.90;;;4.50;;
19877;SDS011;10101;52.204;9.910;2022-12-18T03:48:51;8.50;;;4.80;;
19877;SDS011;10101;52.204;9.910;2022-12-18T03:51:26;9.13;;;4.83;;
19877;SDS011;10101;52.204;9.910;2022-12-18T03:53:58;8.03;;;4.30;;
19877;SDS011;10101;52.204;9.910;2022-12-18T03:56:29;10.73;;;5.17;;
19877;SDS011;10101;52.204;9.910;2022-12-18T03:59:00;9.80;;;4.97;;
19877;SDS011;10101;52.204;9.910;2022-12-18T04:01:30;10.50;;;4.67;;
19877;SDS011;10101;52.204;9.910;2022-12-18T04:03:58;7.30;;;4.50;;
19877;SDS011;10101;52.204;9.910;2022-12-18T04:06:27;8.00;;;4.17;;
19877;SDS011;10101;52.204;9.910;2022-12-18T04:08:54;8.13;;;4.60;;
19877;SDS011;10101;52.204;9.910;2022-12-18T04:11:23;9.10;;;4.50;;
19877;SDS011;10101;52.204;9.910;2022-12-18T04:13:50;7.60;;;4.30;;
19877;SDS011;10101;52.204;9.910;2022-12-18T04:16:18;9.47;;;4.93;;
19877;SDS011;10101;52.204;9.910;2022-12-18T04:18:44;7.77;;;4.47;;
19877;SDS011;10101;52.204;9.910;2022-12-18T04:21:11;7.53;;;4.47;;
19877;SDS011;10101;52.204;9.910;2022-12-18T04:23:38;7.43;;;4.47;;
19877;SDS011;10101;52.204;9.910;2022-12-18T04:26:04;7.13;;;4.03;;
19877;SDS011;10101;52.204;9.910;2022-12-18T04:28:31;8.60;;;4.47;;
19877;SDS011;10101;52.204;9.910;2022-12-18T04:30:58;8.67;;;4.67;;
19877;SDS011;10101;52.204;9.910;2022-12-18T04:33:26;10.07;;;5.10;;
19877;SDS011;10101;52.204;9.910;2022-12-18T04:35:53;8.13;;;4.97;;
19877;SDS011;10101;52.204;9.910;2022-12-18T04:38:20;9.93;;;4.90;;
19877;SDS011;10101;52.204;9.910;2022-12-18T04:40:47;11.40;;;4.67;;
19877;SDS011;10101;52.204;9.910;2022-12-18T04:43:14;12.27;;;5.00;;
19877;SDS011;10101;52.204;9.910;2022-12-18T04:45:41;9.33;;;4.43;;
19877;SDS011;10101;52.204;9.910;2022-12-18T04:48:07;9.67;;;4.30;;
19877;SDS011;10101;52.204;9.910;2022-12-18T04:50:35;8.23;;;4.33;;
19877;SDS011;10101;52.204;9.910;2022-12-18T04:53:02;7.27;;;4.00;;
19877;SDS011;10101;52.204;9.910;2022-12-18T04:55:29;8.17;;;4.30;;
19877;SDS011;10101;52.204;9.910;2022-12-18T04:57:56;8.17;;;3.93;;
19877;SDS011;10101;52.204;9.910;2022-12-18T05:00:22;6.83;;;3.93;;
19877;SDS011;10101;52.204;9.910;2022-12-18T05:02:49;6.83;;;4.57;;
19877;SDS011;10101;52.204;9.910;2022-12-18T05:05:16;11.33;;;4.87;;
19877;SDS011;10101;52.204;9.910;2022-12-18T05:07:44;7.77;;;4.57;;
19877;SDS011;10101;52.204;9.910;2022-12-18T05:10:11;7.67;;;4.17;;
19877;SDS011;10101;52.204;9.910;2022-12-18T05:12:37;7.90;;;4.67;;
19877;SDS011;10101;52.204;9.910;2022-12-18T05:15:23;9.97;;;4.07;;
19877;SDS011;10101;52.204;9.910;2022-12-18T05:17:50;7.30;;;4.20;;
19877;SDS011;10101;52.204;9.910;2022-12-18T05:20:17;6.37;;;3.40;;
19877;SDS011;10101;52.204;9.910;2022-12-18T05:22:45;5.80;;;3.70;;
19877;SDS011;10101;52.204;9.910;2022-12-18T05:25:12;9.63;;;4.00;;
19877;SDS011;10101;52.204;9.910;2022-12-18T05:27:38;6.50;;;3.90;;
19877;SDS011;10101;52.204;9.910;2022-12-18T05:30:05;5.83;;;3.77;;
19877;SDS011;10101;52.204;9.910;2022-12-18T05:32:33;6.60;;;3.33;;
19877;SDS011;10101;52.204;9.910;2022-12-18T05:35:00;6.07;;;3.73;;
19877;SDS011;10101;52.204;9.910;2022-12-18T05:37:27;8.83;;;3.80;;
19877;SDS011;10101;52.204;9.910;2022-12-18T05:39:55;8.83;;;4.50;;
19877;SDS011;10101;52.204;9.910;2022-12-18T05:42:22;7.10;;;3.97;;
19877;SDS011;10101;52.204;9.910;2022-12-18T05:44:49;6.30;;;4.03;;
19877;SDS011;10101;52.204;9.910;2022-12-18T05:47:16;7.33;;;4.30;;
19877;SDS011;10101;52.204;9.910;2022-12-18T05:49:43;6.83;;;3.90;;
19877;SDS011;10101;52.204;9.910;2022-12-18T05:52:09;8.47;;;3.97;;
19877;SDS011;10101;52.204;9.910;2022-12-18T05:54:36;6.23;;;3.97;;
19877;SDS011;10101;52.204;9.910;2022-12-18T05:57:04;9.50;;;3.90;;
19877;SDS011;10101;52.204;9.910;2022-12-18T05:59:31;6.73;;;3.43;;
19877;SDS011;10101;52.204;9.910;2022-12-18T06:01:57;7.20;;;3.47;;
19877;SDS011;10101;52.204;9.910;2022-12-18T06:04:26;5.90;;;3.27;;
19877;SDS011;10101;52.204;9.910;2022-12-18T06:06:52;5.80;;;3.70;;
19877;SDS011;10101;52.204;9.910;2022-12-18T06:09:19;6.73;;;3.73;;
19877;SDS011;10101;52.204;9.910;2022-12-18T06:11:46;6.77;;;3.23;;
19877;SDS011;10101;52.204;9.910;2022-12-18T06:14:14;8.30;;;3.77;;
19877;SDS011;10101;52.204;9.910;2022-12-18T06:16:42;8.10;;;4.33;;
19877;SDS011;10101;52.204;9.910;2022-12-18T06:19:12;8.13;;;3.80;;
19877;SDS011;10101;52.204;9.910;2022-12-18T06:21:40;8.23;;;4.37;;
19877;SDS011;10101;52.204;9.910;2022-12-18T06:24:07;8.23;;;3.87;;
19877;SDS011;10101;52.204;9.910;2022-12-18T06:26:36;7.20;;;3.97;;
19877;SDS011;10101;52.204;9.910;2022-12-18T06:29:03;7.13;;;3.33;;
19877;SDS011;10101;52.204;9.910;2022-12-18T06:31:31;7.03;;;3.47;;
19877;SDS011;10101;52.204;9.910;2022-12-18T06:33:58;6.23;;;3.50;;
19877;SDS011;10101;52.204;9.910;2022-12-18T06:36:25;6.20;;;3.50;;
19877;SDS011;10101;52.204;9.910;2022-12-18T06:38:52;8.67;;;4.03;;
19877;SDS011;10101;52.204;9.910;2022-12-18T06:41:19;5.83;;;3.53;;
19877;SDS011;10101;52.204;9.910;2022-12-18T06:43:47;6.60;;;3.93;;
19877;SDS011;10101;52.204;9.910;2022-12-18T06:46:13;7.87;;;3.43;;
19877;SDS011;10101;52.204;9.910;2022-12-18T06:48:42;6.37;;;3.67;;
19877;SDS011;10101;52.204;9.910;2022-12-18T06:51:08;6.67;;;3.90;;
19877;SDS011;10101;52.204;9.910;2022-12-18T06:53:35;7.63;;;3.40;;
19877;SDS011;10101;52.204;9.910;2022-12-18T06:56:02;6.47;;;3.47;;
19877;SDS011;10101;52.204;9.910;2022-12-18T06:58:30;4.90;;;3.33;;
19877;SDS011;10101;52.204;9.910;2022-12-18T07:00:59;8.60;;;3.53;;
19877;SDS011;10101;52.204;9.910;2022-12-18T07:03:27;6.13;;;3.20;;
19877;SDS011;10101;52.204;9.910;2022-12-18T07:05:55;8.27;;;3.63;;
19877;SDS011;10101;52.204;9.910;2022-12-18T07:08:22;7.40;;;3.73;;
19877;SDS011;10101;52.204;9.910;2022-12-18T07:10:48;7.17;;;3.67;;
19877;SDS011;10101;52.204;9.910;2022-12-18T07:13:15;6.33;;;3.53;;
19877;SDS011;10101;52.204;9.910;2022-12-18T07:15:42;8.10;;;3.83;;
19877;SDS011;10101;52.204;9.910;2022-12-18T07:18:09;9.00;;;3.67;;
19877;SDS011;10101;52.204;9.910;2022-12-18T07:20:36;8.20;;;4.20;;
19877;SDS011;10101;52.204;9.910;2022-12-18T07:23:05;8.67;;;4.50;;
19877;SDS011;10101;52.204;9.910;2022-12-18T07:25:33;6.50;;;3.67;;
19877;SDS011;10101;52.204;9.910;2022-12-18T07:28:00;5.80;;;3.37;;
19877;SDS011;10101;52.204;9.910;2022-12-18T07:30:27;7.17;;;3.73;;
19877;SDS011;10101;52.204;9.910;2022-12-18T07:32:53;11.40;;;4.20;;
19877;SDS011;10101;52.204;9.910;2022-12-18T07:35:20;8.60;;;3.93;;
19877;SDS011;10101;52.204;9.910;2022-12-18T07:37:47;7.67;;;3.67;;
19877;SDS011;10101;52.204;9.910;2022-12-18T07:40:15;6.73;;;3.43;;
19877;SDS011;10101;52.204;9.910;2022-12-18T07:42:42;6.83;;;3.50;;
19877;SDS011;10101;52.204;9.910;2022-12-18T07:45:09;8.30;;;3.83;;
19877;SDS011;10101;52.204;9.910;2022-12-18T07:47:36;10.70;;;4.10;;
19877;SDS011;10101;52.204;9.910;2022-12-18T07:50:03;7.00;;;3.70;;
19877;SDS011;10101;52.204;9.910;2022-12-18T07:52:30;8.73;;;4.10;;
19877;SDS011;10101;52.204;9.910;2022-12-18T07:54:57;5.00;;;3.23;;
19877;SDS011;10101;52.204;9.910;2022-12-18T07:57:25;7.40;;;3.60;;
19877;SDS011;10101;52.204;9.910;2022-12-18T07:59:51;5.40;;;3.23;;
19877;SDS011;10101;52.204;9.910;2022-12-18T08:02:21;8.53;;;3.67;;
19877;SDS011;10101;52.204;9.910;2022-12-18T08:04:48;9.07;;;3.40;;
19877;SDS011;10101;52.204;9.910;2022-12-18T08:07:15;7.77;;;3.63;;
19877;SDS011;10101;52.204;9.910;2022-12-18T08:09:42;6.27;;;3.87;;
19877;SDS011;10101;52.204;9.910;2022-12-18T08:12:09;4.67;;;3.37;;
19877;SDS011;10101;52.204;9.910;2022-12-18T08:14:37;5.53;;;3.20;;
19877;SDS011;10101;52.204;9.910;2022-12-18T08:17:04;5.60;;;2.90;;
19877;SDS011;10101;52.204;9.910;2022-12-18T08:19:30;7.57;;;3.80;;
19877;SDS011;10101;52.204;9.910;2022-12-18T08:21:57;7.23;;;3.20;;
19877;SDS011;10101;52.204;9.910;2022-12-18T08:24:24;6.50;;;3.60;;
19877;SDS011;10101;52.204;9.910;2022-12-18T08:26:51;6.07;;;3.47;;
19877;SDS011;10101;52.204;9.910;2022-12-18T08:29:18;7.17;;;3.63;;
19877;SDS011;10101;52.204;9.910;2022-12-18T08:31:46;4.87;;;2.87;;
19877;SDS011;10101;52.204;9.910;2022-12-18T08:34:13;8.13;;;3.03;;
19877;SDS011;10101;52.204;9.910;2022-12-18T08:36:40;5.90;;;3.63;;
19877;SDS011;10101;52.204;9.910;2022-12-18T08:39:07;6.67;;;3.90;;
19877;SDS011;10101;52.204;9.910;2022-12-18T08:41:33;4.77;;;2.87;;
19877;SDS011;10101;52.204;9.910;2022-12-18T08:44:00;7.00;;;3.00;;
19877;SDS011;10101;52.204;9.910;2022-12-18T08:46:44;5.80;;;3.10;;
19877;SDS011;10101;52.204;9.910;2022-12-18T08:49:12;6.40;;;3.37;;
19877;SDS011;10101;52.204;9.910;2022-12-18T08:51:39;8.30;;;3.27;;
19877;SDS011;10101;52.204;9.910;2022-12-18T08:54:07;7.43;;;3.10;;
19877;SDS011;10101;52.204;9.910;2022-12-18T08:56:37;6.53;;;3.20;;
19877;SDS011;10101;52.204;9.910;2022-12-18T08:59:03;3.90;;;2.57;;
19877;SDS011;10101;52.204;9.910;2022-12-18T09:01:30;5.37;;;3.13;;
19877;SDS011;10101;52.204;9.910;2022-12-18T09:03:58;8.87;;;4.33;;
19877;SDS011;10101;52.204;9.910;2022-12-18T09:06:25;8.07;;;4.93;;
19877;SDS011;10101;52.204;9.910;2022-12-18T09:08:52;8.63;;;4.83;;
19877;SDS011;10101;52.204;9.910;2022-12-18T09:11:19;9.13;;;5.70;;
19877;SDS011;10101;52.204;9.910;2022-12-18T09:13:48;6.37;;;3.60;;
19877;SDS011;10101;52.204;9.910;2022-12-18T09:16:15;5.43;;;3.17;;
19877;SDS011;10101;52.204;9.910;2022-12-18T09:18:42;8.17;;;3.17;;
19877;SDS011;10101;52.204;9.910;2022-12-18T09:21:11;5.87;;;3.37;;
19877;SDS011;10101;52.204;9.910;2022-12-18T09:23:40;4.03;;;2.40;;
19877;SDS011;10101;52.204;9.910;2022-12-18T09:26:07;7.97;;;5.17;;
19877;SDS011;10101;52.204;9.910;2022-12-18T09:28:34;5.20;;;2.90;;
19877;SDS011;10101;52.204;9.910;2022-12-18T09:31:03;13.17;;;7.47;;
19877;SDS011;10101;52.204;9.910;2022-12-18T09:33:31;8.47;;;4.10;;
19877;SDS011;10101;52.204;9.910;2022-12-18T09:36:00;7.97;;;4.37;;
19877;SDS011;10101;52.204;9.910;2022-12-18T09:38:28;10.73;;;6.73;;
19877;SDS011;10101;52.204;9.910;2022-12-18T09:40:56;11.67;;;6.23;;
19877;SDS011;10101;52.204;9.910;2022-12-18T09:43:26;8.03;;;4.53;;
19877;SDS011;10101;52.204;9.910;2022-12-18T09:46:01;21.60;;;11.87;;
19877;SDS011;10101;52.204;9.910;2022-12-18T09:48:31;12.77;;;7.63;;
19877;SDS011;10101;52.204;9.910;2022-12-18T09:51:05;11.57;;;6.83;;
19877;SDS011;10101;52.204;9.910;2022-12-18T09:53:39;8.73;;;5.37;;
19877;SDS011;10101;52.204;9.910;2022-12-18T09:56:10;11.80;;;5.80;;
19877;SDS011;10101;52.204;9.910;2022-12-18T09:58:45;12.77;;;5.93;;
19877;SDS011;10101;52.204;9.910;2022-12-18T10:01:16;24.87;;;12.23;;
19877;SDS011;10101;52.204;9.910;2022-12-18T10:03:47;15.00;;;6.80;;
19877;SDS011;10101;52.204;9.910;2022-12-18T10:06:15;12.57;;;6.70;;
19877;SDS011;10101;52.204;9.910;2022-12-18T10:08:49;8.67;;;5.77;;
19877;SDS011;10101;52.204;9.910;2022-12-18T10:11:26;12.33;;;6.30;;
19877;SDS011;10101;52.204;9.910;2022-12-18T10:14:01;10.67;;;5.30;;
19877;SDS011;10101;52.204;9.910;2022-12-18T10:16:34;7.07;;;3.90;;
19877;SDS011;10101;52.204;9.910;2022-12-18T10:19:11;4.53;;;2.57;;
19877;SDS011;10101;52.204;9.910;2022-12-18T10:21:55;4.63;;;2.40;;
19877;SDS011;10101;52.204;9.910;2022-12-18T10:24:30;3.90;;;2.10;;
19877;SDS011;10101;52.204;9.910;2022-12-18T10:27:07;5.83;;;2.37;;
19877;SDS011;10101;52.204;9.910;2022-12-18T10:29:38;3.97;;;2.60;;
19877;SDS011;10101;52.204;9.910;2022-12-18T10:32:06;4.47;;;2.63;;
19877;SDS011;10101;52.204;9.910;2022-12-18T10:34:35;6.37;;;2.60;;
19877;SDS011;10101;52.204;9.910;2022-12-18T10:37:03;4.00;;;2.33;;
19877;SDS011;10101;52.204;9.910;2022-12-18T10:39:39;3.80;;;2.23;;
19877;SDS011;10101;52.204;9.910;2022-12-18T10:42:09;3.80;;;2.37;;
19877;SDS011;10101;52.204;9.910;2022-12-18T10:44:37;5.40;;;2.20;;
19877;SDS011;10101;52.204;9.910;2022-12-18T10:47:05;2.73;;;2.00;;
19877;SDS011;10101;52.204;9.910;2022-12-18T10:49:37;4.50;;;2.30;;
19877;SDS011;10101;52.204;9.910;2022-12-18T10:52:14;3.07;;;1.93;;
19877;SDS011;10101;52.204;9.910;2022-12-18T10:54:50;5.50;;;2.27;;
19877;SDS011;10101;52.204;9.910;2022-12-18T11:00:18;2.90;;;1.83;;
19877;SDS011;10101;52.204;9.910;2022-12-18T11:02:50;3.80;;;2.00;;
19877;SDS011;10101;52.204;9.910;2022-12-18T11:05:28;4.33;;;2.03;;
19877;SDS011;10101;52.204;9.910;2022-12-18T11:07:56;4.83;;;2.10;;
19877;SDS011;10101;52.204;9.910;2022-12-18T11:10:28;4.80;;;1.90;;
19877;SDS011;10101;52.204;9.910;2022-12-18T11:13:08;4.07;;;2.23;;
19877;SDS011;10101;52.204;9.910;2022-12-18T11:15:41;2.90;;;2.10;;
19877;SDS011;10101;52.204;9.910;2022-12-18T11:18:15;3.00;;;2.00;;
19877;SDS011;10101;52.204;9.910;2022-12-18T11:20:49;4.17;;;2.10;;
19877;SDS011;10101;52.204;9.910;2022-12-18T11:23:18;3.07;;;2.10;;
19877;SDS011;10101;52.204;9.910;2022-12-18T11:25:52;2.93;;;1.60;;
19877;SDS011;10101;52.204;9.910;2022-12-18T11:31:12;2.53;;;1.90;;
19877;SDS011;10101;52.204;9.910;2022-12-18T11:33:50;4.40;;;2.00;;
19877;SDS011;10101;52.204;9.910;2022-12-18T11:36:32;2.50;;;1.90;;
19877;SDS011;10101;52.204;9.910;2022-12-18T11:39:02;4.20;;;2.20;;
19877;SDS011;10101;52.204;9.910;2022-12-18T11:41:39;3.50;;;2.17;;
19877;SDS011;10101;52.204;9.910;2022-12-18T11:44:29;3.00;;;2.00;;
19877;SDS011;10101;52.204;9.910;2022-12-18T11:47:03;3.37;;;2.03;;
19877;SDS011;10101;52.204;9.910;2022-12-18T11:49:35;3.53;;;2.17;;
19877;SDS011;10101;52.204;9.910;2022-12-18T11:52:04;3.90;;;2.17;;
19877;SDS011;10101;52.204;9.910;2022-12-18T11:54:39;3.50;;;2.17;;
19877;SDS011;10101;52.204;9.910;2022-12-18T11:57:09;4.27;;;2.30;;
19877;SDS011;10101;52.204;9.910;2022-12-18T11:59:47;4.10;;;2.53;;
19877;SDS011;10101;52.204;9.910;2022-12-18T12:02:26;5.43;;;2.27;;
19877;SDS011;10101;52.204;9.910;2022-12-18T12:05:13;4.60;;;1.90;;
19877;SDS011;10101;52.204;9.910;2022-12-18T12:07:52;3.83;;;1.80;;
19877;SDS011;10101;52.204;9.910;2022-12-18T12:10:27;4.07;;;2.30;;
19877;SDS011;10101;52.204;9.910;2022-12-18T12:13:05;3.77;;;2.00;;
19877;SDS011;10101;52.204;9.910;2022-12-18T12:15:41;5.90;;;2.00;;
19877;SDS011;10101;52.204;9.910;2022-12-18T12:18:17;4.03;;;2.00;;
19877;SDS011;10101;52.204;9.910;2022-12-18T12:20:53;5.20;;;2.30;;
19877;SDS011;10101;52.204;9.910;2022-12-18T12:23:30;3.23;;;2.07;;
19877;SDS011;10101;52.204;9.910;2022-12-18T12:26:03;3.00;;;2.00;;
19877;SDS011;10101;52.204;9.910;2022-12-18T12:28:40;4.47;;;2.00;;
19877;SDS011;10101;52.204;9.910;2022-12-18T12:31:29;5.50;;;2.30;;
19877;SDS011;10101;52.204;9.910;2022-12-18T12:34:08;4.13;;;2.00;;
19877;SDS011;10101;52.204;9.910;2022-12-18T12:36:45;4.27;;;2.27;;
19877;SDS011;10101;52.204;9.910;2022-12-18T12:39:23;5.80;;;2.60;;
19877;SDS011;10101;52.204;9.910;2022-12-18T12:41:54;4.90;;;2.70;;
19877;SDS011;10101;52.204;9.910;2022-12-18T12:44:41;7.07;;;2.73;;
19877;SDS011;10101;52.204;9.910;2022-12-18T12:47:13;5.00;;;2.73;;
19877;SDS011;10101;52.204;9.910;2022-12-18T12:49:43;4.60;;;2.30;;
19877;SDS011;10101;52.204;9.910;2022-12-18T12:52:14;5.70;;;2.63;;
19877;SDS011;10101;52.204;9.910;2022-12-18T12:54:43;11.37;;;5.33;;
19877;SDS011;10101;52.204;9.910;2022-12-18T12:57:12;10.43;;;5.47;;
19877;SDS011;10101;52.204;9.910;2022-12-18T12:59:47;10.70;;;5.87;;
19877;SDS011;10101;52.204;9.910;2022-12-18T13:02:20;9.27;;;6.27;;
19877;SDS011;10101;52.204;9.910;2022-12-18T13:04:56;10.87;;;5.03;;
19877;SDS011;10101;52.204;9.910;2022-12-18T13:07:29;9.17;;;5.70;;
19877;SDS011;10101;52.204;9.910;2022-12-18T13:10:12;9.80;;;5.50;;
19877;SDS011;10101;52.204;9.910;2022-12-18T13:12:52;10.50;;;5.50;;
19877;SDS011;10101;52.204;9.910;2022-12-18T13:15:24;7.20;;;5.13;;
19877;SDS011;10101;52.204;9.910;2022-12-18T13:18:03;8.87;;;5.27;;
19877;SDS011;10101;52.204;9.910;2022-12-18T13:20:42;10.17;;;5.60;;
19877;SDS011;10101;52.204;9.910;2022-12-18T13:23:23;13.60;;;6.67;;
19877;SDS011;10101;52.204;9.910;2022-12-18T13:25:54;12.03;;;6.33;;
19877;SDS011;10101;52.204;9.910;2022-12-18T13:28:21;13.10;;;6.70;;
19877;SDS011;10101;52.204;9.910;2022-12-18T13:31:11;13.70;;;8.32;;
19877;SDS011;10101;52.204;9.910;2022-12-18T13:33:39;11.37;;;6.70;;
19877;SDS011;10101;52.204;9.910;2022-12-18T13:45:40;7.40;;;4.23;;
19877;SDS011;10101;52.204;9.910;2022-12-18T13:48:17;9.63;;;5.80;;
19877;SDS011;10101;52.204;9.910;2022-12-18T13:50:57;11.30;;;6.50;;
19877;SDS011;10101;52.204;9.910;2022-12-18T13:53:28;9.53;;;5.50;;
19877;SDS011;10101;52.204;9.910;2022-12-18T13:55:59;12.10;;;5.67;;
19877;SDS011;10101;52.204;9.910;2022-12-18T13:58:25;12.27;;;5.83;;
19877;SDS011;10101;52.204;9.910;2022-12-18T14:00:52;11.50;;;6.43;;
19877;SDS011;10101;52.204;9.910;2022-12-18T14:03:22;11.97;;;6.57;;
19877;SDS011;10101;52.204;9.910;2022-12-18T14:05:55;15.60;;;7.67;;
19877;SDS011;10101;52.204;9.910;2022-12-18T14:08:32;12.40;;;7.53;;
19877;SDS011;10101;52.204;9.910;2022-12-18T14:11:03;14.73;;;7.93;;
19877;SDS011;10101;52.204;9.910;2022-12-18T14:13:32;15.27;;;8.93;;
19877;SDS011;10101;52.204;9.910;2022-12-18T14:16:01;20.47;;;11.10;;
19877;SDS011;10101;52.204;9.910;2022-12-18T14:18:33;13.87;;;6.60;;
19877;SDS011;10101;52.204;9.910;2022-12-18T14:21:14;11.47;;;6.30;;
19877;SDS011;10101;52.204;9.910;2022-12-18T14:23:44;12.90;;;6.63;;
19877;SDS011;10101;52.204;9.910;2022-12-18T14:26:25;16.17;;;8.13;;
19877;SDS011;10101;52.204;9.910;2022-12-18T14:28:54;18.97;;;10.20;;
19877;SDS011;10101;52.204;9.910;2022-12-18T14:31:21;13.53;;;7.03;;
19877;SDS011;10101;52.204;9.910;2022-12-18T14:33:50;12.07;;;6.67;;
19877;SDS011;10101;52.204;9.910;2022-12-18T14:36:18;12.63;;;6.83;;
19877;SDS011;10101;52.204;9.910;2022-12-18T14:38:48;53.97;;;27.67;;
19877;SDS011;10101;52.204;9.910;2022-12-18T14:41:16;37.17;;;16.90;;
19877;SDS011;10101;52.204;9.910;2022-12-18T14:43:45;14.40;;;7.50;;
19877;SDS011;10101;52.204;9.910;2022-12-18T14:46:29;15.83;;;7.50;;
19877;SDS011;10101;52.204;9.910;2022-12-18T14:49:02;11.93;;;7.03;;
19877;SDS011;10101;52.204;9.910;2022-12-18T14:51:30;18.67;;;8.97;;
19877;SDS011;10101;52.204;9.910;2022-12-18T14:54:00;15.97;;;8.57;;
19877;SDS011;10101;52.204;9.910;2022-12-18T14:56:29;15.70;;;9.13;;
19877;SDS011;10101;52.204;9.910;2022-12-18T14:58:57;18.63;;;9.63;;
19877;SDS011;10101;52.204;9.910;2022-12-18T15:01:26;15.77;;;8.80;;
19877;SDS011;10101;52.204;9.910;2022-12-18T15:03:55;15.77;;;8.20;;
19877;SDS011;10101;52.204;9.910;2022-12-18T15:06:26;16.47;;;7.73;;
19877;SDS011;10101;52.204;9.910;2022-12-18T15:08:55;13.80;;;8.07;;
19877;SDS011;10101;52.204;9.910;2022-12-18T15:11:27;14.03;;;8.20;;
19877;SDS011;10101;52.204;9.910;2022-12-18T15:14:21;13.20;;;7.93;;
19877;SDS011;10101;52.204;9.910;2022-12-18T15:16:50;13.83;;;7.33;;
19877;SDS011;10101;52.204;9.910;2022-12-18T15:19:19;12.97;;;7.47;;